Aviation Digital Data Service (ADDS)

Output produced by METARs form (2347 UTC 29 September 2016)
found at http://aviationweather.gov/adds/metars/
 
KAVL 292336Z 3000/3024 34011KT P6SM BKN070 
     FM300600 35007KT P6SM SCT010 
     FM300900 36005KT 4SM BR SCT005 
     TEMPO 3010/3012 1SM BR BKN005 
     FM301300 34008KT P6SM FEW020 
     FM301700 20011KT P6SM FEW050